Philemon — V2EV6 — position and weather

sailwx.info

Track history (hours):
 
Tides and Currents Weather Stations Pressure Air Temp Water Temp Dewpoint Dewpoint Depression Visibility Wind Speed Wind Dir Waves Ship Positions

Philemon

Last reported at 2017-Nov-19 23:05 UTC. Time now 2017-Nov-20 12:12 UTC.
Position N 50°33' W 000°23'.

Length 158 m; draft 7.4 m.

Type: Ship (hazmat cat A). MMSI: 305574000.

Date/timePositionNaut miles runAvg speedWind from/ knotsBaromVisibWave heightAir tempDewpointWater temp
2017-Nov-19 23:05N 50°33' W 000°23'112.3
2017-Nov-19 23:00N 50°34' W 000°24'612.4
2017-Nov-19 22:30N 50°36' W 000°33'1413.2
2017-Nov-19 21:27N 50°39' W 000°55'4 9.6
2017-Nov-19 21:00N 50°43' W 000°59'611.4
2017-Nov-19 20:30N 50°46' W 001°06'2 4.4
2017-Nov-19 20:00N 50°49' W 001°06'0 0.1
2017-Nov-19 19:30N 50°49' W 001°05'0 0.0
2017-Nov-19 19:00N 50°49' W 001°05'0 0.0
2017-Nov-19 18:30N 50°49' W 001°05'0 0.0
2017-Nov-19 18:00N 50°49' W 001°05'0 0.0
2017-Nov-19 17:30N 50°49' W 001°05'0 0.0
2017-Nov-19 17:00N 50°49' W 001°05'0 0.0
2017-Nov-19 16:30N 50°49' W 001°05'0 0.0
2017-Nov-19 15:57N 50°49' W 001°05'0 0.0
2017-Nov-19 15:30N 50°49' W 001°05'0 0.0
2017-Nov-19 15:00N 50°49' W 001°05'0 0.0
2017-Nov-19 14:30N 50°49' W 001°05'0 0.0
2017-Nov-19 14:00N 50°49' W 001°05'0 0.0
2017-Nov-19 13:30N 50°49' W 001°05'0 0.0
2017-Nov-19 13:00N 50°49' W 001°05'0 0.0
2017-Nov-19 12:30N 50°49' W 001°05'0 0.0
2017-Nov-19 12:00N 50°49' W 001°05'0 0.0
2017-Nov-19 11:30N 50°49' W 001°06'1 2.2
2017-Nov-19 11:00N 50°48' W 001°07'4 8.8
2017-Nov-19 10:30N 50°44' W 001°04'5 9.5
2017-Nov-19 10:00N 50°40' W 000°59'612.8
2017-Nov-19 09:31N 50°34' W 000°59'3111.0
2017-Nov-19 06:43N 50°07' W 001°22'516.0
2017-Nov-19 06:24N 50°06' W 001°30'717.1
2017-Nov-19 05:59N 50°04' W 001°40'816.6
2017-Nov-19 05:30N 50°01' W 001°52'915.8
2017-Nov-19 04:57N 49°58' W 002°04'14114.4
2017-Nov-18 19:13N 48°55' W 005°18'614.7
2017-Nov-18 18:50N 48°52' W 005°25'814.9
2017-Nov-18 18:18N 48°47' W 005°34'415.3
2017-Nov-18 18:01N 48°43' W 005°38'3916.4
2017-Nov-18 15:38N 48°09' W 006°06'2517.3
2017-Nov-18 14:10N 47°46' W 006°23'317.5
2017-Nov-18 14:00N 47°44' W 006°25'917.6
2017-Nov-18 13:30N 47°36' W 006°31'1017.1
2017-Nov-18 12:53N 47°27' W 006°38'2416.0
2017-Nov-18 11:23N 47°05' W 006°54'47914.7
2017-Nov-17 02:48N 39°24' W 009°50'615.6
2017-Nov-17 02:23N 39°17' W 009°51'816.1
2017-Nov-17 01:52N 39°09' W 009°51'615.6
2017-Nov-17 01:31N 39°03' W 009°51'815.5
2017-Nov-17 01:00N 38°56' W 009°50'815.7
2017-Nov-17 00:30N 38°48' W 009°50'815.5
2017-Nov-17 00:01N 38°40' W 009°50'815.3
2017-Nov-16 23:30N 38°32' W 009°50'714.9
2017-Nov-16 23:00N 38°25' W 009°50'714.9
2017-Nov-16 22:30N 38°18' W 009°50'715.0
2017-Nov-16 22:01N 38°10' W 009°51'714.7
2017-Nov-16 21:31N 38°03' W 009°51'815.3
2017-Nov-16 21:01N 37°55' W 009°51'815.3
2017-Nov-16 20:30N 37°47' W 009°51'815.5
2017-Nov-16 20:00N 37°40' W 009°51'815.5
2017-Nov-16 19:31N 37°32' W 009°52'815.3
2017-Nov-16 19:00N 37°24' W 009°52'  
2017-Nov-13 01:17N 31°17' W 010°06'1115.1
2017-Nov-13 00:34N 31°27' W 010°05'115.5
2017-Nov-13 00:30N 31°29' W 010°05'715.1
2017-Nov-13 00:00N 31°36' W 010°02'915.0
2017-Nov-12 23:26N 31°43' W 009°58'1615.1
2017-Nov-12 22:20N 31°58' W 009°50'  
2017-Nov-10 09:17N 35°58' W 005°26'  
Track history (hours):
 
Tides and Currents Weather Stations Pressure Air Temp Water Temp Dewpoint Dewpoint Depression Visibility Wind Speed Wind Dir Waves Ship Positions

Philemon

Last reported at 2017-Nov-19 23:05 UTC. Time now 2017-Nov-20 12:12 UTC.
Position N 50°33' W 000°23'.

Length 158 m; draft 7.4 m.

Type: Ship (hazmat cat A). MMSI: 305574000.

Date/timePositionNaut miles runAvg speedWind from/ knotsBaromVisibWave heightAir tempDewpointWater temp
2017-Nov-19 23:05N 50°33' W 000°23'112.3
2017-Nov-19 23:00N 50°34' W 000°24'612.4
2017-Nov-19 22:30N 50°36' W 000°33'1413.2
2017-Nov-19 21:27N 50°39' W 000°55'4 9.6
2017-Nov-19 21:00N 50°43' W 000°59'611.4
2017-Nov-19 20:30N 50°46' W 001°06'2 4.4
2017-Nov-19 20:00N 50°49' W 001°06'0 0.1
2017-Nov-19 19:30N 50°49' W 001°05'0 0.0
2017-Nov-19 19:00N 50°49' W 001°05'0 0.0
2017-Nov-19 18:30N 50°49' W 001°05'0 0.0
2017-Nov-19 18:00N 50°49' W 001°05'0 0.0
2017-Nov-19 17:30N 50°49' W 001°05'0 0.0
2017-Nov-19 17:00N 50°49' W 001°05'0 0.0
2017-Nov-19 16:30N 50°49' W 001°05'0 0.0
2017-Nov-19 15:57N 50°49' W 001°05'0 0.0
2017-Nov-19 15:30N 50°49' W 001°05'0 0.0
2017-Nov-19 15:00N 50°49' W 001°05'0 0.0
2017-Nov-19 14:30N 50°49' W 001°05'0 0.0
2017-Nov-19 14:00N 50°49' W 001°05'0 0.0
2017-Nov-19 13:30N 50°49' W 001°05'0 0.0
2017-Nov-19 13:00N 50°49' W 001°05'0 0.0
2017-Nov-19 12:30N 50°49' W 001°05'0 0.0
2017-Nov-19 12:00N 50°49' W 001°05'0 0.0
2017-Nov-19 11:30N 50°49' W 001°06'1 2.2
2017-Nov-19 11:00N 50°48' W 001°07'4 8.8
2017-Nov-19 10:30N 50°44' W 001°04'5 9.5
2017-Nov-19 10:00N 50°40' W 000°59'612.8
2017-Nov-19 09:31N 50°34' W 000°59'3111.0
2017-Nov-19 06:43N 50°07' W 001°22'516.0
2017-Nov-19 06:24N 50°06' W 001°30'717.1
2017-Nov-19 05:59N 50°04' W 001°40'816.6
2017-Nov-19 05:30N 50°01' W 001°52'915.8
2017-Nov-19 04:57N 49°58' W 002°04'14114.4
2017-Nov-18 19:13N 48°55' W 005°18'614.7
2017-Nov-18 18:50N 48°52' W 005°25'814.9
2017-Nov-18 18:18N 48°47' W 005°34'415.3
2017-Nov-18 18:01N 48°43' W 005°38'3916.4
2017-Nov-18 15:38N 48°09' W 006°06'2517.3
2017-Nov-18 14:10N 47°46' W 006°23'317.5
2017-Nov-18 14:00N 47°44' W 006°25'917.6
2017-Nov-18 13:30N 47°36' W 006°31'1017.1
2017-Nov-18 12:53N 47°27' W 006°38'2416.0
2017-Nov-18 11:23N 47°05' W 006°54'47914.7
2017-Nov-17 02:48N 39°24' W 009°50'615.6
2017-Nov-17 02:23N 39°17' W 009°51'816.1
2017-Nov-17 01:52N 39°09' W 009°51'615.6
2017-Nov-17 01:31N 39°03' W 009°51'815.5
2017-Nov-17 01:00N 38°56' W 009°50'815.7
2017-Nov-17 00:30N 38°48' W 009°50'815.5
2017-Nov-17 00:01N 38°40' W 009°50'815.3
2017-Nov-16 23:30N 38°32' W 009°50'714.9
2017-Nov-16 23:00N 38°25' W 009°50'714.9
2017-Nov-16 22:30N 38°18' W 009°50'715.0
2017-Nov-16 22:01N 38°10' W 009°51'714.7
2017-Nov-16 21:31N 38°03' W 009°51'815.3
2017-Nov-16 21:01N 37°55' W 009°51'815.3
2017-Nov-16 20:30N 37°47' W 009°51'815.5
2017-Nov-16 20:00N 37°40' W 009°51'815.5
2017-Nov-16 19:31N 37°32' W 009°52'815.3
2017-Nov-16 19:00N 37°24' W 009°52'  
2017-Nov-13 01:17N 31°17' W 010°06'1115.1
2017-Nov-13 00:34N 31°27' W 010°05'115.5
2017-Nov-13 00:30N 31°29' W 010°05'715.1
2017-Nov-13 00:00N 31°36' W 010°02'915.0
2017-Nov-12 23:26N 31°43' W 009°58'1615.1
2017-Nov-12 22:20N 31°58' W 009°50'  
2017-Nov-10 09:17N 35°58' W 005°26'  

Dump ship's entire track history